sensor_id;sensor_type;location;lat;lon;timestamp;P1;durP1;ratioP1;P2;durP2;ratioP2
1507;SDS011;745;48.586;10.032;2023-04-28T00:02:29;7.60;;;5.37;;
1507;SDS011;745;48.586;10.032;2023-04-28T00:07:06;9.10;;;6.27;;
1507;SDS011;745;48.586;10.032;2023-04-28T00:11:38;5.70;;;4.87;;
1507;SDS011;745;48.586;10.032;2023-04-28T00:16:16;8.30;;;5.63;;
1507;SDS011;745;48.586;10.032;2023-04-28T00:20:47;6.83;;;6.20;;
1507;SDS011;745;48.586;10.032;2023-04-28T00:25:27;8.67;;;4.80;;
1507;SDS011;745;48.586;10.032;2023-04-28T00:30:04;6.30;;;5.70;;
1507;SDS011;745;48.586;10.032;2023-04-28T00:34:34;9.10;;;7.00;;
1507;SDS011;745;48.586;10.032;2023-04-28T00:39:08;7.10;;;4.93;;
1507;SDS011;745;48.586;10.032;2023-04-28T00:43:43;6.23;;;4.83;;
1507;SDS011;745;48.586;10.032;2023-04-28T00:48:15;6.70;;;4.90;;
1507;SDS011;745;48.586;10.032;2023-04-28T00:52:46;5.30;;;4.80;;
1507;SDS011;745;48.586;10.032;2023-04-28T00:57:18;9.00;;;5.53;;
1507;SDS011;745;48.586;10.032;2023-04-28T01:01:49;5.83;;;5.17;;
1507;SDS011;745;48.586;10.032;2023-04-28T01:06:20;7.53;;;5.83;;
1507;SDS011;745;48.586;10.032;2023-04-28T01:10:51;6.17;;;4.60;;
1507;SDS011;745;48.586;10.032;2023-04-28T01:15:23;9.70;;;6.00;;
1507;SDS011;745;48.586;10.032;2023-04-28T01:19:53;8.80;;;6.10;;
1507;SDS011;745;48.586;10.032;2023-04-28T01:24:43;6.30;;;5.47;;
1507;SDS011;745;48.586;10.032;2023-04-28T01:29:13;9.17;;;5.90;;
1507;SDS011;745;48.586;10.032;2023-04-28T01:33:44;8.80;;;6.70;;
1507;SDS011;745;48.586;10.032;2023-04-28T01:38:14;7.40;;;6.50;;
1507;SDS011;745;48.586;10.032;2023-04-28T01:42:44;6.70;;;5.33;;
1507;SDS011;745;48.586;10.032;2023-04-28T01:47:15;6.47;;;5.73;;
1507;SDS011;745;48.586;10.032;2023-04-28T01:51:45;6.00;;;5.40;;
1507;SDS011;745;48.586;10.032;2023-04-28T01:56:16;6.67;;;5.60;;
1507;SDS011;745;48.586;10.032;2023-04-28T02:00:46;6.90;;;5.60;;
1507;SDS011;745;48.586;10.032;2023-04-28T02:05:24;10.00;;;6.80;;
1507;SDS011;745;48.586;10.032;2023-04-28T02:10:02;11.30;;;5.57;;
1507;SDS011;745;48.586;10.032;2023-04-28T02:14:33;6.63;;;5.73;;
1507;SDS011;745;48.586;10.032;2023-04-28T02:19:03;6.87;;;6.17;;
1507;SDS011;745;48.586;10.032;2023-04-28T02:23:34;7.97;;;7.17;;
1507;SDS011;745;48.586;10.032;2023-04-28T02:28:05;10.60;;;7.60;;
1507;SDS011;745;48.586;10.032;2023-04-28T02:32:36;9.20;;;6.73;;
1507;SDS011;745;48.586;10.032;2023-04-28T02:37:06;7.60;;;6.80;;
1507;SDS011;745;48.586;10.032;2023-04-28T02:41:37;9.13;;;6.73;;
1507;SDS011;745;48.586;10.032;2023-04-28T02:46:07;9.77;;;8.70;;
1507;SDS011;745;48.586;10.032;2023-04-28T02:50:37;11.60;;;10.40;;
1507;SDS011;745;48.586;10.032;2023-04-28T02:55:10;11.27;;;7.27;;
1507;SDS011;745;48.586;10.032;2023-04-28T02:59:40;10.60;;;8.40;;
1507;SDS011;745;48.586;10.032;2023-04-28T03:04:10;11.70;;;9.10;;
1507;SDS011;745;48.586;10.032;2023-04-28T03:08:41;8.50;;;7.13;;
1507;SDS011;745;48.586;10.032;2023-04-28T03:13:11;11.90;;;8.97;;
1507;SDS011;745;48.586;10.032;2023-04-28T03:17:42;12.40;;;10.00;;
1507;SDS011;745;48.586;10.032;2023-04-28T03:22:12;18.20;;;14.80;;
1507;SDS011;745;48.586;10.032;2023-04-28T03:26:43;14.10;;;12.30;;
1507;SDS011;745;48.586;10.032;2023-04-28T03:31:13;11.40;;;9.30;;
1507;SDS011;745;48.586;10.032;2023-04-28T03:35:43;10.67;;;8.70;;
1507;SDS011;745;48.586;10.032;2023-04-28T03:40:14;11.53;;;9.23;;
1507;SDS011;745;48.586;10.032;2023-04-28T03:44:45;10.50;;;8.57;;
1507;SDS011;745;48.586;10.032;2023-04-28T03:49:15;11.60;;;8.70;;
1507;SDS011;745;48.586;10.032;2023-04-28T03:53:47;9.40;;;8.40;;
1507;SDS011;745;48.586;10.032;2023-04-28T03:58:18;10.97;;;9.00;;
1507;SDS011;745;48.586;10.032;2023-04-28T04:02:48;11.60;;;8.77;;
1507;SDS011;745;48.586;10.032;2023-04-28T04:07:37;17.83;;;11.20;;
1507;SDS011;745;48.586;10.032;2023-04-28T04:12:09;10.63;;;9.30;;
1507;SDS011;745;48.586;10.032;2023-04-28T04:16:39;13.20;;;9.37;;
1507;SDS011;745;48.586;10.032;2023-04-28T04:21:10;11.03;;;8.13;;
1507;SDS011;745;48.586;10.032;2023-04-28T04:25:40;9.07;;;8.00;;
1507;SDS011;745;48.586;10.032;2023-04-28T04:30:11;11.33;;;8.80;;
1507;SDS011;745;48.586;10.032;2023-04-28T04:34:55;11.00;;;9.37;;
1507;SDS011;745;48.586;10.032;2023-04-28T04:39:26;13.20;;;10.07;;
1507;SDS011;745;48.586;10.032;2023-04-28T04:43:56;14.63;;;11.37;;
1507;SDS011;745;48.586;10.032;2023-04-28T04:48:27;18.43;;;13.27;;
1507;SDS011;745;48.586;10.032;2023-04-28T04:52:57;16.63;;;12.20;;
1507;SDS011;745;48.586;10.032;2023-04-28T04:57:28;14.50;;;11.90;;
1507;SDS011;745;48.586;10.032;2023-04-28T05:01:58;16.70;;;11.97;;
1507;SDS011;745;48.586;10.032;2023-04-28T05:06:29;13.70;;;12.10;;
1507;SDS011;745;48.586;10.032;2023-04-28T05:11:00;12.00;;;10.77;;
1507;SDS011;745;48.586;10.032;2023-04-28T05:15:31;18.73;;;13.17;;
1507;SDS011;745;48.586;10.032;2023-04-28T05:20:02;14.13;;;11.73;;
1507;SDS011;745;48.586;10.032;2023-04-28T05:24:32;15.80;;;12.57;;
1507;SDS011;745;48.586;10.032;2023-04-28T05:29:02;16.30;;;11.50;;
1507;SDS011;745;48.586;10.032;2023-04-28T05:33:41;13.50;;;11.87;;
1507;SDS011;745;48.586;10.032;2023-04-28T05:38:11;13.80;;;12.13;;
1507;SDS011;745;48.586;10.032;2023-04-28T05:42:41;17.50;;;12.50;;
1507;SDS011;745;48.586;10.032;2023-04-28T05:47:13;16.10;;;11.97;;
1507;SDS011;745;48.586;10.032;2023-04-28T05:51:43;13.10;;;11.70;;
1507;SDS011;745;48.586;10.032;2023-04-28T05:56:15;23.63;;;16.43;;
1507;SDS011;745;48.586;10.032;2023-04-28T06:00:46;17.53;;;15.17;;
1507;SDS011;745;48.586;10.032;2023-04-28T06:05:16;20.17;;;15.77;;
1507;SDS011;745;48.586;10.032;2023-04-28T06:09:46;15.17;;;13.57;;
1507;SDS011;745;48.586;10.032;2023-04-28T06:14:17;17.47;;;13.50;;
1507;SDS011;745;48.586;10.032;2023-04-28T06:18:47;18.67;;;14.83;;
1507;SDS011;745;48.586;10.032;2023-04-28T06:23:18;18.80;;;15.30;;
1507;SDS011;745;48.586;10.032;2023-04-28T06:27:48;21.13;;;15.33;;
1507;SDS011;745;48.586;10.032;2023-04-28T06:32:19;19.93;;;16.40;;
1507;SDS011;745;48.586;10.032;2023-04-28T06:36:50;20.00;;;15.87;;
1507;SDS011;745;48.586;10.032;2023-04-28T06:41:20;20.70;;;17.03;;
1507;SDS011;745;48.586;10.032;2023-04-28T06:45:52;33.13;;;22.57;;
1507;SDS011;745;48.586;10.032;2023-04-28T06:50:22;23.37;;;17.70;;
1507;SDS011;745;48.586;10.032;2023-04-28T06:54:55;15.37;;;13.60;;
1507;SDS011;745;48.586;10.032;2023-04-28T06:59:25;18.60;;;15.57;;
1507;SDS011;745;48.586;10.032;2023-04-28T07:03:56;18.00;;;13.90;;
1507;SDS011;745;48.586;10.032;2023-04-28T07:08:26;17.23;;;14.57;;
1507;SDS011;745;48.586;10.032;2023-04-28T07:12:58;19.03;;;15.63;;
1507;SDS011;745;48.586;10.032;2023-04-28T07:17:29;18.13;;;15.37;;
1507;SDS011;745;48.586;10.032;2023-04-28T07:21:59;21.73;;;17.63;;
1507;SDS011;745;48.586;10.032;2023-04-28T07:26:30;18.67;;;15.97;;
1507;SDS011;745;48.586;10.032;2023-04-28T07:31:03;21.40;;;17.33;;
1507;SDS011;745;48.586;10.032;2023-04-28T07:35:35;17.97;;;15.57;;
1507;SDS011;745;48.586;10.032;2023-04-28T07:40:06;20.53;;;17.50;;
1507;SDS011;745;48.586;10.032;2023-04-28T07:44:37;20.57;;;16.10;;
1507;SDS011;745;48.586;10.032;2023-04-28T07:49:07;20.03;;;16.40;;
1507;SDS011;745;48.586;10.032;2023-04-28T07:53:38;19.63;;;17.03;;
1507;SDS011;745;48.586;10.032;2023-04-28T07:58:09;19.67;;;15.90;;
1507;SDS011;745;48.586;10.032;2023-04-28T08:02:39;14.00;;;12.40;;
1507;SDS011;745;48.586;10.032;2023-04-28T08:07:09;16.77;;;14.30;;
1507;SDS011;745;48.586;10.032;2023-04-28T08:11:40;20.87;;;16.30;;
1507;SDS011;745;48.586;10.032;2023-04-28T08:16:10;19.17;;;15.67;;
1507;SDS011;745;48.586;10.032;2023-04-28T08:20:41;13.47;;;12.07;;
1507;SDS011;745;48.586;10.032;2023-04-28T08:25:11;13.97;;;12.10;;
1507;SDS011;745;48.586;10.032;2023-04-28T08:29:42;14.60;;;11.70;;
1507;SDS011;745;48.586;10.032;2023-04-28T08:34:12;11.17;;;9.80;;
1507;SDS011;745;48.586;10.032;2023-04-28T08:38:42;10.80;;;9.67;;
1507;SDS011;745;48.586;10.032;2023-04-28T08:43:13;13.73;;;9.43;;
1507;SDS011;745;48.586;10.032;2023-04-28T08:47:44;11.23;;;10.13;;
1507;SDS011;745;48.586;10.032;2023-04-28T08:52:17;10.57;;;9.53;;
1507;SDS011;745;48.586;10.032;2023-04-28T08:56:48;12.30;;;11.10;;
1507;SDS011;745;48.586;10.032;2023-04-28T09:01:19;12.07;;;10.50;;
1507;SDS011;745;48.586;10.032;2023-04-28T09:05:49;9.57;;;8.67;;
1507;SDS011;745;48.586;10.032;2023-04-28T09:10:20;9.97;;;8.93;;
1507;SDS011;745;48.586;10.032;2023-04-28T09:14:52;8.80;;;8.00;;
1507;SDS011;745;48.586;10.032;2023-04-28T09:19:33;9.30;;;7.50;;
1507;SDS011;745;48.586;10.032;2023-04-28T09:24:06;9.80;;;8.80;;
1507;SDS011;745;48.586;10.032;2023-04-28T09:28:36;6.57;;;5.97;;
1507;SDS011;745;48.586;10.032;2023-04-28T09:33:06;8.40;;;7.03;;
1507;SDS011;745;48.586;10.032;2023-04-28T09:37:37;6.70;;;4.10;;
1507;SDS011;745;48.586;10.032;2023-04-28T09:42:07;4.30;;;4.00;;
1507;SDS011;745;48.586;10.032;2023-04-28T09:46:38;3.50;;;3.20;;
1507;SDS011;745;48.586;10.032;2023-04-28T09:51:09;3.13;;;2.90;;
1507;SDS011;745;48.586;10.032;2023-04-28T09:55:40;5.77;;;2.77;;
1507;SDS011;745;48.586;10.032;2023-04-28T10:00:13;3.30;;;3.00;;
1507;SDS011;745;48.586;10.032;2023-04-28T10:04:46;2.73;;;2.53;;
1507;SDS011;745;48.586;10.032;2023-04-28T10:09:18;2.57;;;2.37;;
1507;SDS011;745;48.586;10.032;2023-04-28T10:13:55;2.20;;;2.10;;
1507;SDS011;745;48.586;10.032;2023-04-28T10:18:25;3.07;;;2.87;;
1507;SDS011;745;48.586;10.032;2023-04-28T10:23:06;3.70;;;3.40;;
1507;SDS011;745;48.586;10.032;2023-04-28T10:27:56;3.03;;;2.83;;
1507;SDS011;745;48.586;10.032;2023-04-28T10:32:28;3.03;;;2.83;;
1507;SDS011;745;48.586;10.032;2023-04-28T10:37:03;4.27;;;3.90;;
1507;SDS011;745;48.586;10.032;2023-04-28T10:41:34;5.10;;;4.70;;
1507;SDS011;745;48.586;10.032;2023-04-28T10:46:05;3.50;;;3.20;;
1507;SDS011;745;48.586;10.032;2023-04-28T10:50:36;4.33;;;2.87;;
1507;SDS011;745;48.586;10.032;2023-04-28T11:05:10;4.33;;;3.93;;
1507;SDS011;745;48.586;10.032;2023-04-28T11:18:55;3.50;;;3.20;;
1507;SDS011;745;48.586;10.032;2023-04-28T11:23:28;2.80;;;2.60;;
1507;SDS011;745;48.586;10.032;2023-04-28T11:28:02;2.30;;;2.10;;
1507;SDS011;745;48.586;10.032;2023-04-28T11:32:34;2.23;;;2.03;;
1507;SDS011;745;48.586;10.032;2023-04-28T11:37:05;2.00;;;1.80;;
1507;SDS011;745;48.586;10.032;2023-04-28T11:41:38;1.80;;;1.70;;
1507;SDS011;745;48.586;10.032;2023-04-28T11:46:09;1.70;;;1.60;;
1507;SDS011;745;48.586;10.032;2023-04-28T11:50:45;2.00;;;1.90;;
1507;SDS011;745;48.586;10.032;2023-04-28T11:55:15;1.50;;;1.40;;
1507;SDS011;745;48.586;10.032;2023-04-28T11:59:46;4.87;;;4.23;;
1507;SDS011;745;48.586;10.032;2023-04-28T12:09:01;2.80;;;2.60;;
1507;SDS011;745;48.586;10.032;2023-04-28T12:14:01;1.77;;;1.67;;
1507;SDS011;745;48.586;10.032;2023-04-28T12:18:35;2.97;;;2.60;;
1507;SDS011;745;48.586;10.032;2023-04-28T12:23:06;1.80;;;1.70;;
1507;SDS011;745;48.586;10.032;2023-04-28T12:27:37;1.70;;;1.60;;
1507;SDS011;745;48.586;10.032;2023-04-28T12:32:09;2.33;;;1.63;;
1507;SDS011;745;48.586;10.032;2023-04-28T12:36:40;2.27;;;1.80;;
1507;SDS011;745;48.586;10.032;2023-04-28T12:41:11;2.13;;;1.97;;
1507;SDS011;745;48.586;10.032;2023-04-28T12:45:41;1.77;;;1.43;;
1507;SDS011;745;48.586;10.032;2023-04-28T12:50:12;1.70;;;1.60;;
1507;SDS011;745;48.586;10.032;2023-04-28T12:54:42;2.73;;;1.63;;
1507;SDS011;745;48.586;10.032;2023-04-28T12:59:16;1.77;;;1.67;;
1507;SDS011;745;48.586;10.032;2023-04-28T13:03:46;2.47;;;1.60;;
1507;SDS011;745;48.586;10.032;2023-04-28T13:08:17;3.10;;;2.03;;
1507;SDS011;745;48.586;10.032;2023-04-28T13:12:47;1.80;;;1.50;;
1507;SDS011;745;48.586;10.032;2023-04-28T13:17:18;1.50;;;1.40;;
1507;SDS011;745;48.586;10.032;2023-04-28T13:21:48;1.93;;;1.83;;
1507;SDS011;745;48.586;10.032;2023-04-28T13:26:19;2.30;;;1.90;;
1507;SDS011;745;48.586;10.032;2023-04-28T13:30:49;2.20;;;1.80;;
1507;SDS011;745;48.586;10.032;2023-04-28T13:35:21;2.03;;;1.50;;
1507;SDS011;745;48.586;10.032;2023-04-28T13:39:52;1.80;;;1.70;;
1507;SDS011;745;48.586;10.032;2023-04-28T13:44:22;1.90;;;1.80;;
1507;SDS011;745;48.586;10.032;2023-04-28T13:48:52;2.03;;;1.13;;
1507;SDS011;745;48.586;10.032;2023-04-28T13:53:23;1.90;;;1.53;;
1507;SDS011;745;48.586;10.032;2023-04-28T13:57:54;3.10;;;1.47;;
1507;SDS011;745;48.586;10.032;2023-04-28T14:02:25;1.47;;;1.30;;
1507;SDS011;745;48.586;10.032;2023-04-28T14:06:56;1.47;;;1.37;;
1507;SDS011;745;48.586;10.032;2023-04-28T14:11:26;1.43;;;1.33;;
1507;SDS011;745;48.586;10.032;2023-04-28T14:15:57;1.50;;;1.20;;
1507;SDS011;745;48.586;10.032;2023-04-28T14:20:27;1.33;;;1.20;;
1507;SDS011;745;48.586;10.032;2023-04-28T14:24:58;3.20;;;1.60;;
1507;SDS011;745;48.586;10.032;2023-04-28T14:29:29;2.87;;;1.27;;
1507;SDS011;745;48.586;10.032;2023-04-28T14:33:59;1.43;;;1.33;;
1507;SDS011;745;48.586;10.032;2023-04-28T14:38:30;3.53;;;1.20;;
1507;SDS011;745;48.586;10.032;2023-04-28T14:43:00;1.37;;;1.27;;
1507;SDS011;745;48.586;10.032;2023-04-28T14:47:31;1.27;;;1.17;;
1507;SDS011;745;48.586;10.032;2023-04-28T14:52:01;1.37;;;0.90;;
1507;SDS011;745;48.586;10.032;2023-04-28T14:56:34;1.10;;;1.00;;
1507;SDS011;745;48.586;10.032;2023-04-28T15:01:04;20.60;;;15.93;;
1507;SDS011;745;48.586;10.032;2023-04-28T15:05:35;6.90;;;6.20;;
1507;SDS011;745;48.586;10.032;2023-04-28T15:10:05;3.63;;;3.10;;
1507;SDS011;745;48.586;10.032;2023-04-28T15:14:36;2.87;;;2.60;;
1507;SDS011;745;48.586;10.032;2023-04-28T15:19:07;3.27;;;2.97;;
1507;SDS011;745;48.586;10.032;2023-04-28T15:23:37;4.10;;;3.57;;
1507;SDS011;745;48.586;10.032;2023-04-28T15:28:07;4.20;;;3.90;;
1507;SDS011;745;48.586;10.032;2023-04-28T15:32:38;4.20;;;3.80;;
1507;SDS011;745;48.586;10.032;2023-04-28T15:37:42;3.70;;;3.30;;
1507;SDS011;745;48.586;10.032;2023-04-28T15:42:10;3.73;;;3.30;;
1507;SDS011;745;48.586;10.032;2023-04-28T15:46:40;2.57;;;1.40;;
1507;SDS011;745;48.586;10.032;2023-04-28T15:51:11;1.70;;;1.60;;
1507;SDS011;745;48.586;10.032;2023-04-28T15:55:41;2.10;;;1.90;;
1507;SDS011;745;48.586;10.032;2023-04-28T16:00:12;2.37;;;2.17;;
1507;SDS011;745;48.586;10.032;2023-04-28T16:04:43;1.87;;;1.77;;
1507;SDS011;745;48.586;10.032;2023-04-28T16:09:14;3.03;;;2.17;;
1507;SDS011;745;48.586;10.032;2023-04-28T16:13:44;2.10;;;1.90;;
1507;SDS011;745;48.586;10.032;2023-04-28T16:18:15;2.40;;;1.87;;
1507;SDS011;745;48.586;10.032;2023-04-28T16:22:45;1.87;;;1.60;;
1507;SDS011;745;48.586;10.032;2023-04-28T16:27:16;1.70;;;1.60;;
1507;SDS011;745;48.586;10.032;2023-04-28T16:31:46;1.60;;;1.50;;
1507;SDS011;745;48.586;10.032;2023-04-28T16:36:17;1.73;;;1.63;;
1507;SDS011;745;48.586;10.032;2023-04-28T16:40:47;3.30;;;1.80;;
1507;SDS011;745;48.586;10.032;2023-04-28T16:45:18;2.90;;;2.70;;
1507;SDS011;745;48.586;10.032;2023-04-28T16:49:48;1.60;;;1.50;;
1507;SDS011;745;48.586;10.032;2023-04-28T16:54:19;2.20;;;1.93;;
1507;SDS011;745;48.586;10.032;2023-04-28T16:58:49;1.83;;;1.50;;
1507;SDS011;745;48.586;10.032;2023-04-28T17:03:19;1.83;;;1.73;;
1507;SDS011;745;48.586;10.032;2023-04-28T17:07:52;3.70;;;2.30;;
1507;SDS011;745;48.586;10.032;2023-04-28T17:12:23;10.87;;;8.97;;
1507;SDS011;745;48.586;10.032;2023-04-28T17:16:54;7.50;;;5.93;;
1507;SDS011;745;48.586;10.032;2023-04-28T17:21:25;33.60;;;20.30;;
1507;SDS011;745;48.586;10.032;2023-04-28T17:25:57;9.27;;;6.43;;
1507;SDS011;745;48.586;10.032;2023-04-28T17:30:28;2.43;;;2.23;;
1507;SDS011;745;48.586;10.032;2023-04-28T17:34:58;1.27;;;1.17;;
1507;SDS011;745;48.586;10.032;2023-04-28T17:39:29;3.00;;;1.30;;
1507;SDS011;745;48.586;10.032;2023-04-28T17:43:59;2.73;;;1.50;;
1507;SDS011;745;48.586;10.032;2023-04-28T17:48:30;2.00;;;1.63;;
1507;SDS011;745;48.586;10.032;2023-04-28T17:53:00;1.60;;;1.50;;
1507;SDS011;745;48.586;10.032;2023-04-28T17:57:31;1.33;;;1.23;;
1507;SDS011;745;48.586;10.032;2023-04-28T18:02:01;1.40;;;1.30;;
1507;SDS011;745;48.586;10.032;2023-04-28T18:06:31;1.60;;;1.50;;
1507;SDS011;745;48.586;10.032;2023-04-28T18:11:02;3.53;;;3.23;;
1507;SDS011;745;48.586;10.032;2023-04-28T18:15:32;3.43;;;3.13;;
1507;SDS011;745;48.586;10.032;2023-04-28T18:20:03;3.90;;;3.60;;
1507;SDS011;745;48.586;10.032;2023-04-28T18:24:37;3.93;;;3.60;;
1507;SDS011;745;48.586;10.032;2023-04-28T18:29:08;4.00;;;3.67;;
1507;SDS011;745;48.586;10.032;2023-04-28T18:33:38;5.83;;;5.23;;
1507;SDS011;745;48.586;10.032;2023-04-28T18:38:09;5.87;;;3.50;;
1507;SDS011;745;48.586;10.032;2023-04-28T18:42:39;4.00;;;3.70;;
1507;SDS011;745;48.586;10.032;2023-04-28T18:47:09;3.70;;;3.30;;
1507;SDS011;745;48.586;10.032;2023-04-28T18:51:41;4.00;;;3.67;;
1507;SDS011;745;48.586;10.032;2023-04-28T18:56:12;3.63;;;3.33;;
1507;SDS011;745;48.586;10.032;2023-04-28T19:00:43;3.97;;;3.63;;
1507;SDS011;745;48.586;10.032;2023-04-28T19:05:14;3.53;;;3.23;;
1507;SDS011;745;48.586;10.032;2023-04-28T19:09:44;3.00;;;2.70;;
1507;SDS011;745;48.586;10.032;2023-04-28T19:14:15;3.20;;;2.97;;
1507;SDS011;745;48.586;10.032;2023-04-28T19:18:46;7.70;;;6.90;;
1507;SDS011;745;48.586;10.032;2023-04-28T19:23:20;8.00;;;5.17;;
1507;SDS011;745;48.586;10.032;2023-04-28T19:27:50;4.57;;;4.23;;
1507;SDS011;745;48.586;10.032;2023-04-28T19:32:20;8.33;;;7.53;;
1507;SDS011;745;48.586;10.032;2023-04-28T19:36:51;12.63;;;10.70;;
1507;SDS011;745;48.586;10.032;2023-04-28T19:41:24;11.33;;;10.10;;
1507;SDS011;745;48.586;10.032;2023-04-28T19:45:54;8.07;;;6.70;;
1507;SDS011;745;48.586;10.032;2023-04-28T19:50:25;6.10;;;5.60;;
1507;SDS011;745;48.586;10.032;2023-04-28T19:54:55;7.00;;;6.40;;
1507;SDS011;745;48.586;10.032;2023-04-28T19:59:26;7.13;;;6.43;;
1507;SDS011;745;48.586;10.032;2023-04-28T20:03:56;7.50;;;6.80;;
1507;SDS011;745;48.586;10.032;2023-04-28T20:08:27;9.13;;;8.23;;
1507;SDS011;745;48.586;10.032;2023-04-28T20:12:58;8.83;;;7.77;;
1507;SDS011;745;48.586;10.032;2023-04-28T20:17:28;5.53;;;5.03;;
1507;SDS011;745;48.586;10.032;2023-04-28T20:22:02;7.00;;;6.30;;
1507;SDS011;745;48.586;10.032;2023-04-28T20:26:34;7.47;;;6.83;;
1507;SDS011;745;48.586;10.032;2023-04-28T20:31:07;6.13;;;5.63;;
1507;SDS011;745;48.586;10.032;2023-04-28T20:35:38;5.73;;;5.20;;
1507;SDS011;745;48.586;10.032;2023-04-28T20:40:08;4.80;;;4.40;;
1507;SDS011;745;48.586;10.032;2023-04-28T20:44:39;6.23;;;5.63;;
1507;SDS011;745;48.586;10.032;2023-04-28T20:49:10;5.30;;;4.80;;
1507;SDS011;745;48.586;10.032;2023-04-28T20:53:41;5.17;;;4.77;;
1507;SDS011;745;48.586;10.032;2023-04-28T20:58:12;4.20;;;3.90;;
1507;SDS011;745;48.586;10.032;2023-04-28T21:02:42;4.53;;;4.13;;
1507;SDS011;745;48.586;10.032;2023-04-28T21:07:13;6.00;;;5.40;;
1507;SDS011;745;48.586;10.032;2023-04-28T21:11:43;5.50;;;5.00;;
1507;SDS011;745;48.586;10.032;2023-04-28T21:16:14;4.73;;;4.33;;
1507;SDS011;745;48.586;10.032;2023-04-28T21:20:45;4.30;;;3.97;;
1507;SDS011;745;48.586;10.032;2023-04-28T21:25:16;3.77;;;3.47;;
1507;SDS011;745;48.586;10.032;2023-04-28T21:29:46;3.70;;;3.40;;
1507;SDS011;745;48.586;10.032;2023-04-28T21:34:17;4.70;;;4.30;;
1507;SDS011;745;48.586;10.032;2023-04-28T21:38:47;6.10;;;5.07;;
1507;SDS011;745;48.586;10.032;2023-04-28T21:43:18;4.90;;;4.43;;
1507;SDS011;745;48.586;10.032;2023-04-28T21:47:48;7.63;;;5.47;;
1507;SDS011;745;48.586;10.032;2023-04-28T21:52:19;8.77;;;6.53;;
1507;SDS011;745;48.586;10.032;2023-04-28T21:56:49;12.60;;;8.67;;
1507;SDS011;745;48.586;10.032;2023-04-28T22:01:20;7.00;;;6.13;;
1507;SDS011;745;48.586;10.032;2023-04-28T22:06:10;7.90;;;6.60;;
1507;SDS011;745;48.586;10.032;2023-04-28T22:10:42;5.40;;;4.90;;
1507;SDS011;745;48.586;10.032;2023-04-28T22:15:14;4.40;;;4.00;;
1507;SDS011;745;48.586;10.032;2023-04-28T22:19:44;5.40;;;4.90;;
1507;SDS011;745;48.586;10.032;2023-04-28T22:24:15;4.90;;;3.97;;
1507;SDS011;745;48.586;10.032;2023-04-28T22:28:45;6.90;;;5.77;;
1507;SDS011;745;48.586;10.032;2023-04-28T22:33:16;3.67;;;3.37;;
1507;SDS011;745;48.586;10.032;2023-04-28T22:37:46;3.57;;;3.27;;
1507;SDS011;745;48.586;10.032;2023-04-28T22:42:16;3.50;;;3.20;;
1507;SDS011;745;48.586;10.032;2023-04-28T22:46:47;5.00;;;4.60;;
1507;SDS011;745;48.586;10.032;2023-04-28T22:51:17;4.17;;;3.87;;
1507;SDS011;745;48.586;10.032;2023-04-28T22:55:48;5.03;;;4.53;;
1507;SDS011;745;48.586;10.032;2023-04-28T23:00:18;4.40;;;4.10;;
1507;SDS011;745;48.586;10.032;2023-04-28T23:04:48;3.97;;;3.67;;
1507;SDS011;745;48.586;10.032;2023-04-28T23:09:19;5.03;;;4.27;;
1507;SDS011;745;48.586;10.032;2023-04-28T23:13:50;6.10;;;4.40;;
1507;SDS011;745;48.586;10.032;2023-04-28T23:18:20;6.23;;;4.53;;
1507;SDS011;745;48.586;10.032;2023-04-28T23:22:51;6.20;;;4.43;;
1507;SDS011;745;48.586;10.032;2023-04-28T23:27:21;4.87;;;4.40;;
1507;SDS011;745;48.586;10.032;2023-04-28T23:31:51;5.23;;;4.83;;
1507;SDS011;745;48.586;10.032;2023-04-28T23:36:23;4.67;;;4.27;;
1507;SDS011;745;48.586;10.032;2023-04-28T23:40:54;5.10;;;3.70;;
1507;SDS011;745;48.586;10.032;2023-04-28T23:45:24;4.70;;;4.30;;
1507;SDS011;745;48.586;10.032;2023-04-28T23:49:56;4.47;;;4.10;;
1507;SDS011;745;48.586;10.032;2023-04-28T23:54:26;4.23;;;3.93;;
1507;SDS011;745;48.586;10.032;2023-04-28T23:58:56;4.00;;;3.70;;
